createdAt,value
2023-03-12T00:00:11.338Z,1.00
2023-03-12T00:02:38.251Z,5.00
2023-03-12T00:05:05.436Z,1.00
2023-03-12T00:07:32.477Z,1.00
2023-03-12T00:09:59.292Z,1.00
2023-03-12T00:12:26.239Z,1.00
2023-03-12T00:14:53.030Z,1.60
2023-03-12T00:17:19.766Z,1.00
2023-03-12T00:19:46.485Z,1.00
2023-03-12T00:22:14.218Z,1.00
2023-03-12T00:24:40.979Z,1.00
2023-03-12T00:27:07.735Z,1.00
2023-03-12T00:29:34.495Z,1.00
2023-03-12T00:32:01.298Z,1.00
2023-03-12T00:34:28.179Z,1.00
2023-03-12T00:36:54.917Z,1.00
2023-03-12T00:39:21.707Z,1.00
2023-03-12T00:41:48.473Z,1.00
2023-03-12T00:44:15.190Z,1.00
2023-03-12T00:46:41.965Z,1.00
2023-03-12T00:49:08.839Z,1.00
2023-03-12T00:51:35.638Z,1.00
2023-03-12T00:54:03.423Z,1.00
2023-03-12T00:56:30.293Z,1.00
2023-03-12T00:58:57.212Z,1.00
2023-03-12T01:01:24.376Z,1.00
2023-03-12T01:03:52.294Z,1.00
2023-03-12T01:06:19.554Z,1.00
2023-03-12T01:08:46.418Z,1.00
2023-03-12T01:11:15.333Z,1.00
2023-03-12T01:13:42.100Z,1.00
2023-03-12T01:16:08.922Z,1.00
2023-03-12T01:18:35.885Z,1.00
2023-03-12T01:21:03.557Z,1.00
2023-03-12T01:23:30.367Z,1.00
2023-03-12T01:25:57.403Z,1.00
2023-03-12T01:28:25.167Z,1.00
2023-03-12T01:30:52.405Z,1.00
2023-03-12T01:33:19.216Z,1.00
2023-03-12T01:35:46.082Z,1.00
2023-03-12T01:38:15.274Z,1.00
2023-03-12T01:40:43.387Z,1.00
2023-03-12T01:43:39.883Z,1.00
2023-03-12T01:46:12.568Z,1.00
2023-03-12T01:48:48.049Z,1.00
2023-03-12T01:51:16.336Z,1.00
2023-03-12T01:53:47.641Z,1.00
2023-03-12T01:56:16.444Z,1.00
2023-03-12T01:58:47.199Z,1.00
2023-03-12T02:01:17.305Z,1.00
2023-03-12T02:03:50.841Z,1.00
2023-03-12T02:06:22.371Z,1.00
2023-03-12T02:08:50.876Z,1.00
2023-03-12T02:11:17.681Z,1.00
2023-03-12T02:13:44.816Z,1.00
2023-03-12T02:16:11.728Z,1.00
2023-03-12T02:18:38.566Z,1.00
2023-03-12T02:21:16.260Z,1.00
2023-03-12T02:26:25.376Z,1.00
2023-03-12T02:28:53.147Z,1.00
2023-03-12T02:31:24.702Z,1.00
2023-03-12T02:33:53.190Z,1.00
2023-03-12T02:36:20.796Z,1.00
2023-03-12T02:38:50.155Z,1.00
2023-03-12T02:41:32.529Z,1.00
2023-03-12T02:44:03.013Z,1.00
2023-03-12T02:46:34.623Z,1.00
2023-03-12T02:49:01.924Z,1.00
2023-03-12T02:51:28.890Z,1.00
2023-03-12T02:53:55.939Z,1.00
2023-03-12T02:56:24.433Z,1.00
2023-03-12T02:58:51.317Z,1.00
2023-03-12T03:01:18.985Z,1.00
2023-03-12T03:03:45.901Z,1.00
2023-03-12T03:06:13.016Z,1.00
2023-03-12T03:08:39.877Z,1.00
2023-03-12T03:11:07.394Z,13.00
2023-03-12T03:13:34.412Z,4.50
2023-03-12T03:16:02.171Z,1.00
2023-03-12T03:18:30.770Z,1.00
2023-03-12T03:21:06.634Z,1.00
2023-03-12T03:23:34.288Z,1.00
2023-03-12T03:26:01.340Z,1.00
2023-03-12T03:28:29.638Z,1.00
2023-03-12T03:31:00.884Z,1.00
2023-03-12T03:33:29.057Z,1.00
2023-03-12T03:35:57.305Z,1.00
2023-03-12T03:38:24.124Z,1.00
2023-03-12T03:40:50.860Z,1.00
2023-03-12T03:43:17.605Z,1.00
2023-03-12T03:45:44.917Z,1.00
2023-03-12T03:48:12.680Z,1.00
2023-03-12T03:50:40.248Z,6.30
2023-03-12T03:53:08.247Z,21.00
2023-03-12T03:55:39.369Z,23.50
2023-03-12T03:58:06.995Z,32.20
2023-03-12T04:00:34.557Z,44.90
2023-03-12T04:03:01.357Z,42.70
2023-03-12T04:05:28.188Z,64.70
2023-03-12T04:07:55.448Z,77.70
2023-03-12T04:10:24.585Z,65.30
2023-03-12T04:12:53.066Z,72.60
2023-03-12T04:15:19.855Z,87.60
2023-03-12T04:17:46.720Z,98.00
2023-03-12T04:20:13.696Z,97.00
2023-03-12T04:22:40.537Z,99.90
2023-03-12T04:25:07.840Z,99.90
2023-03-12T04:27:35.045Z,99.90
2023-03-12T04:30:01.818Z,99.90
2023-03-12T04:32:28.661Z,99.90
2023-03-12T04:34:55.496Z,99.90
2023-03-12T04:37:22.581Z,99.90
2023-03-12T04:39:49.312Z,99.90
2023-03-12T04:42:16.144Z,99.90
2023-03-12T04:44:42.938Z,99.90
2023-03-12T04:47:09.748Z,99.90
2023-03-12T04:49:39.089Z,99.90
2023-03-12T04:52:06.324Z,99.90
2023-03-12T04:54:33.443Z,99.90
2023-03-12T04:57:00.207Z,99.90
2023-03-12T04:59:27.038Z,99.90
2023-03-12T05:01:53.801Z,99.90
2023-03-12T05:04:20.572Z,99.90
2023-03-12T05:06:47.313Z,99.90
2023-03-12T05:09:14.048Z,99.90
2023-03-12T05:11:40.814Z,99.90
2023-03-12T05:14:07.547Z,99.90
2023-03-12T05:16:34.318Z,99.90
2023-03-12T05:19:02.405Z,99.90
2023-03-12T05:21:29.144Z,99.90
2023-03-12T05:23:57.604Z,99.90
2023-03-12T05:26:28.088Z,99.90
2023-03-12T05:28:55.182Z,99.90
2023-03-12T05:31:22.015Z,99.90
2023-03-12T05:33:52.262Z,99.90
2023-03-12T05:36:19.632Z,99.90
2023-03-12T05:38:46.886Z,99.90
2023-03-12T05:41:25.918Z,99.90
2023-03-12T05:43:54.609Z,99.90
2023-03-12T05:46:21.397Z,99.90
2023-03-12T05:48:48.261Z,99.90
2023-03-12T05:51:15.250Z,99.90
2023-03-12T05:53:42.024Z,99.90
2023-03-12T05:56:13.479Z,99.90
2023-03-12T05:58:40.542Z,99.90
2023-03-12T06:01:33.679Z,99.90
2023-03-12T06:04:00.410Z,99.90
2023-03-12T06:06:27.297Z,99.90
2023-03-12T06:08:54.055Z,99.90
2023-03-12T06:11:20.790Z,99.90
2023-03-12T06:13:47.580Z,99.90
2023-03-12T06:16:25.349Z,99.90
2023-03-12T06:18:56.634Z,99.90
2023-03-12T06:21:27.067Z,99.90
2023-03-12T06:26:25.903Z,99.90
2023-03-12T06:28:53.049Z,99.90
2023-03-12T06:31:21.027Z,99.90
2023-03-12T06:33:48.338Z,99.90
2023-03-12T06:36:15.170Z,99.90
2023-03-12T06:38:42.240Z,99.90
2023-03-12T06:41:12.347Z,99.90
2023-03-12T06:43:40.730Z,99.90
2023-03-12T06:46:11.460Z,99.90
2023-03-12T06:48:41.341Z,99.90
2023-03-12T06:51:10.068Z,99.90
2023-03-12T06:53:37.078Z,99.90
2023-03-12T06:56:04.616Z,99.90
2023-03-12T06:58:31.651Z,99.90
2023-03-12T07:00:58.695Z,99.90
2023-03-12T07:03:25.698Z,99.90
2023-03-12T07:05:52.498Z,99.90
2023-03-12T07:08:19.370Z,99.90
2023-03-12T07:10:46.441Z,99.90
2023-03-12T07:13:13.325Z,99.90
2023-03-12T07:15:40.443Z,99.90
2023-03-12T07:18:09.312Z,99.90
2023-03-12T07:21:17.291Z,99.90
2023-03-12T07:26:11.939Z,99.90
2023-03-12T07:28:38.693Z,99.90
2023-03-12T07:31:05.820Z,99.90
2023-03-12T07:33:33.445Z,99.90
2023-03-12T07:36:00.582Z,99.90
2023-03-12T07:38:27.486Z,99.90
2023-03-12T07:40:56.066Z,99.90
2023-03-12T07:43:24.201Z,99.90
2023-03-12T07:45:51.643Z,99.90
2023-03-12T07:48:21.645Z,99.90
2023-03-12T07:50:48.986Z,99.90
2023-03-12T07:53:15.958Z,99.90
2023-03-12T07:55:46.151Z,99.90
2023-03-12T07:58:13.543Z,99.90
2023-03-12T08:00:40.468Z,99.90
2023-03-12T08:03:07.559Z,99.90
2023-03-12T08:05:34.502Z,99.90
2023-03-12T08:08:01.276Z,99.90
2023-03-12T08:10:28.434Z,99.90
2023-03-12T08:12:55.280Z,99.90
2023-03-12T08:15:22.068Z,99.90
2023-03-12T08:17:49.112Z,99.90
2023-03-12T08:20:15.974Z,99.90
2023-03-12T08:22:42.835Z,99.90
2023-03-12T08:25:10.359Z,99.90
2023-03-12T08:27:37.242Z,99.90
2023-03-12T08:30:06.565Z,99.90
2023-03-12T08:32:33.662Z,99.90
2023-03-12T08:35:00.554Z,99.90
2023-03-12T08:37:27.317Z,99.90
2023-03-12T08:39:54.735Z,99.90
2023-03-12T08:42:21.512Z,99.90
2023-03-12T08:44:48.312Z,99.90
2023-03-12T08:47:15.282Z,99.90
2023-03-12T08:49:42.007Z,99.90
2023-03-12T08:52:08.739Z,99.90
2023-03-12T08:54:35.596Z,99.90
2023-03-12T08:57:02.331Z,99.90
2023-03-12T08:59:29.121Z,99.90
2023-03-12T09:01:56.653Z,99.90
2023-03-12T09:04:23.506Z,99.90
2023-03-12T09:06:50.334Z,99.90
2023-03-12T09:09:17.186Z,99.90
2023-03-12T09:11:44.094Z,99.90
2023-03-12T09:16:58.277Z,99.90
2023-03-12T09:19:25.133Z,99.90
2023-03-12T09:21:51.866Z,99.90
2023-03-12T09:24:18.708Z,99.90
2023-03-12T09:26:46.068Z,99.90
2023-03-12T09:29:12.892Z,99.90
2023-03-12T09:31:39.811Z,99.90
2023-03-12T09:34:06.602Z,99.90
2023-03-12T09:36:33.573Z,99.90
2023-03-12T09:39:00.873Z,99.90
2023-03-12T09:41:33.863Z,99.90
2023-03-12T09:44:20.406Z,99.90
2023-03-12T09:46:56.800Z,99.90
2023-03-12T09:49:46.617Z,99.90
2023-03-12T09:52:34.118Z,99.90
2023-03-12T09:55:19.968Z,99.90
2023-03-12T09:57:48.646Z,99.90
2023-03-12T10:00:18.693Z,99.90
2023-03-12T10:03:03.468Z,99.90
2023-03-12T10:05:57.625Z,99.90
2023-03-12T10:09:02.535Z,99.90
2023-03-12T10:11:43.651Z,99.90
2023-03-12T10:14:29.832Z,99.90
2023-03-12T10:17:41.345Z,99.90
2023-03-12T10:20:26.696Z,99.90
2023-03-12T10:23:13.001Z,99.90
2023-03-12T10:25:55.812Z,99.90
2023-03-12T10:28:34.597Z,99.90
2023-03-12T10:31:06.550Z,99.90
2023-03-12T10:33:42.840Z,99.90
2023-03-12T10:36:15.407Z,99.90
2023-03-12T10:38:42.150Z,99.90
2023-03-12T10:41:24.361Z,99.90
2023-03-12T10:43:51.483Z,99.90
2023-03-12T10:46:37.402Z,99.90
2023-03-12T10:49:22.236Z,99.90
2023-03-12T10:52:05.916Z,99.90
2023-03-12T10:54:34.406Z,99.90
2023-03-12T10:57:01.274Z,99.90
2023-03-12T10:59:34.787Z,99.90
2023-03-12T11:02:19.084Z,99.90
2023-03-12T11:04:51.791Z,99.90
2023-03-12T11:07:19.990Z,99.90
2023-03-12T11:10:04.258Z,99.90
2023-03-12T11:12:31.466Z,99.90
2023-03-12T11:14:59.103Z,99.90
2023-03-12T11:17:29.069Z,99.90
2023-03-12T11:19:56.233Z,99.90
2023-03-12T11:22:35.046Z,99.90
2023-03-12T11:25:07.490Z,99.90
2023-03-12T11:27:46.067Z,99.90
2023-03-12T11:30:17.975Z,99.90
2023-03-12T11:32:49.891Z,99.90
2023-03-12T11:35:21.023Z,99.90
2023-03-12T11:38:08.012Z,99.90
2023-03-12T11:41:29.298Z,99.90
2023-03-12T11:44:23.513Z,99.90
2023-03-12T11:47:14.259Z,99.90
2023-03-12T11:50:13.264Z,99.90
2023-03-12T11:52:56.473Z,99.90
2023-03-12T11:56:00.188Z,99.90
2023-03-12T11:58:33.754Z,99.90
2023-03-12T12:01:09.529Z,99.90
2023-03-12T12:04:15.557Z,99.90
2023-03-12T12:06:55.950Z,99.90
2023-03-12T12:09:43.146Z,99.90
2023-03-12T12:13:08.304Z,99.90
2023-03-12T12:15:55.797Z,99.90
2023-03-12T12:18:47.078Z,99.90
2023-03-12T12:21:16.847Z,99.90
2023-03-12T12:26:36.779Z,99.90
2023-03-12T12:29:21.189Z,99.90
2023-03-12T12:31:56.048Z,99.90
2023-03-12T12:34:34.653Z,99.90
2023-03-12T12:37:23.052Z,99.90
2023-03-12T12:40:08.826Z,99.90
2023-03-12T12:42:42.598Z,99.90
2023-03-12T12:45:14.192Z,99.90
2023-03-12T12:47:57.418Z,99.90
2023-03-12T12:50:29.356Z,99.90
2023-03-12T12:53:07.770Z,99.90
2023-03-12T12:55:41.238Z,99.90
2023-03-12T12:58:17.692Z,99.90
2023-03-12T13:00:49.526Z,99.90
2023-03-12T13:03:23.391Z,99.90
2023-03-12T13:05:53.123Z,99.90
2023-03-12T13:08:44.291Z,99.90
2023-03-12T13:11:20.481Z,99.90
2023-03-12T13:14:02.806Z,99.90
2023-03-12T13:16:38.721Z,99.90
2023-03-12T13:19:14.176Z,99.90
2023-03-12T13:22:04.543Z,99.90
2023-03-12T13:24:51.877Z,99.90
2023-03-12T13:27:25.756Z,99.90
2023-03-12T13:29:57.250Z,99.90
2023-03-12T13:32:58.032Z,99.90
2023-03-12T13:35:24.742Z,99.90
2023-03-12T13:37:51.532Z,99.90
2023-03-12T13:40:30.329Z,99.90
2023-03-12T13:43:30.559Z,99.90
2023-03-12T13:46:21.015Z,99.90
2023-03-12T13:48:49.741Z,99.90
2023-03-12T13:51:23.612Z,99.90
2023-03-12T13:53:58.046Z,99.90
2023-03-12T13:56:30.937Z,99.90
2023-03-12T13:59:02.598Z,99.90
2023-03-12T14:01:42.463Z,99.90
2023-03-12T14:04:23.539Z,99.90
2023-03-12T14:06:59.834Z,99.90
2023-03-12T14:09:26.770Z,99.90
2023-03-12T14:12:31.981Z,99.90
2023-03-12T14:15:05.591Z,99.90
2023-03-12T14:17:34.620Z,99.90
2023-03-12T14:20:17.621Z,99.90
2023-03-12T14:22:50.113Z,99.90
2023-03-12T14:25:26.930Z,99.90
2023-03-12T14:27:54.019Z,99.90
2023-03-12T14:30:25.606Z,99.90
2023-03-12T14:33:00.204Z,99.90
2023-03-12T14:35:42.028Z,99.90
2023-03-12T14:38:23.085Z,99.90
2023-03-12T14:41:06.706Z,99.90
2023-03-12T14:43:35.401Z,99.90
2023-03-12T14:46:05.923Z,99.90
2023-03-12T14:48:35.122Z,99.90
2023-03-12T14:51:04.163Z,99.90
2023-03-12T14:53:32.721Z,99.90
2023-03-12T14:56:08.758Z,99.90
2023-03-12T14:58:42.102Z,99.90
2023-03-12T15:01:15.102Z,99.90
2023-03-12T15:03:46.309Z,99.90
2023-03-12T15:06:27.138Z,99.90
2023-03-12T15:08:54.708Z,99.90
2023-03-12T15:11:24.556Z,99.90
2023-03-12T15:13:53.624Z,99.90
2023-03-12T15:16:21.751Z,99.90
2023-03-12T15:18:50.376Z,99.90
2023-03-12T15:21:17.816Z,99.90
2023-03-12T15:26:19.602Z,80.30
2023-03-12T15:29:01.332Z,70.50
2023-03-12T15:31:40.218Z,62.40
2023-03-12T15:34:07.296Z,63.30
2023-03-12T15:36:35.600Z,61.50
2023-03-12T15:39:12.879Z,56.00
2023-03-12T15:41:48.818Z,68.60
2023-03-12T15:44:24.808Z,64.30
2023-03-12T15:47:03.548Z,59.40
2023-03-12T15:49:34.360Z,56.80
2023-03-12T15:52:19.190Z,54.40
2023-03-12T15:55:10.373Z,47.60
2023-03-12T15:57:46.321Z,34.80
2023-03-12T16:00:18.303Z,44.80
2023-03-12T16:02:53.996Z,44.50
2023-03-12T16:05:23.790Z,37.00
2023-03-12T16:07:50.745Z,40.80
2023-03-12T16:10:20.475Z,37.90
2023-03-12T16:12:50.311Z,35.60
2023-03-12T16:15:22.809Z,34.80
2023-03-12T16:17:49.548Z,43.70
2023-03-12T16:20:17.821Z,44.10
2023-03-12T16:22:44.911Z,49.50
2023-03-12T16:25:13.207Z,44.20
2023-03-12T16:27:46.848Z,48.00
2023-03-12T16:30:22.635Z,48.50
2023-03-12T16:32:49.501Z,56.50
2023-03-12T16:35:18.782Z,65.40
2023-03-12T16:37:46.518Z,64.50
2023-03-12T16:40:21.211Z,68.50
2023-03-12T16:43:02.531Z,68.40
2023-03-12T16:45:30.858Z,75.50
2023-03-12T16:48:03.594Z,69.80
2023-03-12T16:50:30.842Z,85.20
2023-03-12T16:52:58.021Z,81.10
2023-03-12T16:55:30.213Z,90.80
2023-03-12T16:58:01.133Z,91.20
2023-03-12T17:00:30.964Z,96.70
2023-03-12T17:02:59.174Z,94.20
2023-03-12T17:05:28.288Z,96.90
2023-03-12T17:07:56.153Z,96.60
2023-03-12T17:10:24.144Z,98.30
2023-03-12T17:12:51.735Z,99.90
2023-03-12T17:15:26.324Z,99.90
2023-03-12T17:17:55.609Z,99.90
2023-03-12T17:20:24.442Z,99.90
2023-03-12T17:22:51.243Z,99.90
2023-03-12T17:25:27.574Z,99.90
2023-03-12T17:27:56.521Z,99.90
2023-03-12T17:30:24.827Z,99.90
2023-03-12T17:32:52.565Z,99.90
2023-03-12T17:35:19.798Z,99.90
2023-03-12T17:37:48.547Z,99.90
2023-03-12T17:40:16.468Z,99.90
2023-03-12T17:42:43.301Z,99.90
2023-03-12T17:45:10.602Z,99.90
2023-03-12T17:47:37.693Z,99.90
2023-03-12T17:50:06.226Z,99.90
2023-03-12T17:52:34.099Z,99.90
2023-03-12T17:55:01.236Z,99.90
2023-03-12T17:57:28.301Z,99.90
2023-03-12T17:59:55.104Z,99.90
2023-03-12T18:02:22.328Z,99.90
2023-03-12T18:04:49.197Z,99.90
2023-03-12T18:07:16.089Z,99.90
2023-03-12T18:09:42.872Z,99.90
2023-03-12T18:12:11.145Z,99.90
2023-03-12T18:14:38.300Z,99.90
2023-03-12T18:17:05.149Z,99.90
2023-03-12T18:19:32.316Z,99.90
2023-03-12T18:22:00.369Z,99.90
2023-03-12T18:24:27.155Z,99.90
2023-03-12T18:26:54.197Z,99.90
2023-03-12T18:29:20.940Z,99.90
2023-03-12T18:31:47.652Z,99.90
2023-03-12T18:34:14.399Z,99.90
2023-03-12T18:36:41.143Z,99.90
2023-03-12T18:39:09.767Z,99.90
2023-03-12T18:41:36.654Z,99.90
2023-03-12T18:44:03.674Z,99.90
2023-03-12T18:46:30.564Z,99.90
2023-03-12T18:48:57.514Z,99.90
2023-03-12T18:51:24.285Z,99.90
2023-03-12T18:53:51.039Z,99.90
2023-03-12T18:56:19.735Z,99.90
2023-03-12T18:58:46.495Z,99.90
2023-03-12T19:01:14.044Z,99.90
2023-03-12T19:03:40.834Z,99.90
2023-03-12T19:06:12.845Z,99.90
2023-03-12T19:08:40.565Z,99.90
2023-03-12T19:11:10.436Z,99.90
2023-03-12T19:13:37.536Z,99.90
2023-03-12T19:16:08.706Z,99.90
2023-03-12T19:18:36.848Z,99.90
2023-03-12T19:21:04.046Z,99.90
2023-03-12T19:23:30.871Z,99.90
2023-03-12T19:25:57.622Z,99.90
2023-03-12T19:28:24.410Z,99.90
2023-03-12T19:30:51.150Z,99.90
2023-03-12T19:33:17.926Z,99.90
2023-03-12T19:35:44.795Z,99.90
2023-03-12T19:38:11.614Z,99.90
2023-03-12T19:40:38.310Z,99.90
2023-03-12T19:43:05.135Z,99.90
2023-03-12T19:45:31.979Z,99.90
2023-03-12T19:47:58.786Z,99.90
2023-03-12T19:50:25.607Z,99.90
2023-03-12T19:52:52.346Z,99.90
2023-03-12T19:55:19.103Z,99.90
2023-03-12T19:57:45.855Z,99.90
2023-03-12T20:00:13.029Z,99.90
2023-03-12T20:02:39.938Z,99.90
2023-03-12T20:05:07.907Z,99.90
2023-03-12T20:07:36.845Z,99.90
2023-03-12T20:10:05.635Z,99.90
2023-03-12T20:12:32.897Z,99.90
2023-03-12T20:14:59.631Z,99.90
2023-03-12T20:17:26.444Z,99.90
2023-03-12T20:19:53.250Z,99.90
2023-03-12T20:22:19.984Z,99.90
2023-03-12T20:24:46.751Z,99.90
2023-03-12T20:27:13.714Z,99.90
2023-03-12T20:29:40.526Z,99.90
2023-03-12T20:32:07.424Z,99.90
2023-03-12T20:34:34.152Z,99.90
2023-03-12T20:37:00.938Z,99.90
2023-03-12T20:39:27.703Z,99.90
2023-03-12T20:41:54.424Z,99.90
2023-03-12T20:44:21.192Z,99.90
2023-03-12T20:46:48.213Z,99.90
2023-03-12T20:49:15.244Z,99.90
2023-03-12T20:51:42.864Z,99.90
2023-03-12T20:54:09.890Z,99.90
2023-03-12T20:56:38.203Z,99.90
2023-03-12T20:59:05.062Z,99.90
2023-03-12T21:01:32.166Z,99.90
2023-03-12T21:03:59.108Z,99.90
2023-03-12T21:06:26.236Z,99.90
2023-03-12T21:08:56.144Z,99.90
2023-03-12T21:11:23.163Z,99.90
2023-03-12T21:13:49.879Z,99.90
2023-03-12T21:16:19.696Z,99.90
2023-03-12T21:18:46.544Z,99.90
2023-03-12T21:21:13.472Z,99.90
2023-03-12T21:26:18.731Z,99.90
2023-03-12T21:28:45.697Z,99.90
2023-03-12T21:31:17.154Z,99.90
2023-03-12T21:33:44.037Z,99.90
2023-03-12T21:36:13.334Z,99.90
2023-03-12T21:38:42.831Z,99.90
2023-03-12T21:41:15.216Z,99.90
2023-03-12T21:43:43.396Z,99.90
2023-03-12T21:46:19.234Z,99.90
2023-03-12T21:48:48.106Z,99.90
2023-03-12T21:51:16.448Z,99.90
2023-03-12T21:53:43.711Z,99.90
2023-03-12T21:56:11.552Z,99.90
2023-03-12T21:58:38.354Z,99.90
2023-03-12T22:01:12.197Z,99.90
2023-03-12T22:03:39.841Z,99.90
2023-03-12T22:06:06.906Z,99.90
2023-03-12T22:08:34.201Z,99.90
2023-03-12T22:11:01.126Z,99.90
2023-03-12T22:13:27.900Z,99.90
2023-03-12T22:15:59.825Z,99.90
2023-03-12T22:18:27.436Z,99.90
2023-03-12T22:20:56.465Z,99.90
2023-03-12T22:23:24.354Z,99.90
2023-03-12T22:25:51.374Z,99.90
2023-03-12T22:28:18.591Z,99.90
2023-03-12T22:30:46.029Z,99.90
2023-03-12T22:33:13.345Z,99.90
2023-03-12T22:35:46.924Z,99.90
2023-03-12T22:38:13.669Z,99.90
2023-03-12T22:40:41.011Z,99.90
2023-03-12T22:43:08.027Z,99.90
2023-03-12T22:45:35.017Z,99.90
2023-03-12T22:48:01.899Z,99.90
2023-03-12T22:50:28.746Z,99.90
2023-03-12T22:52:55.482Z,99.90
2023-03-12T22:55:22.236Z,99.90
2023-03-12T22:57:48.973Z,99.90
2023-03-12T23:00:19.276Z,99.90
2023-03-12T23:02:45.994Z,99.90
2023-03-12T23:05:12.717Z,99.90
2023-03-12T23:07:39.453Z,99.90
2023-03-12T23:10:08.330Z,99.90
2023-03-12T23:12:35.080Z,99.90
2023-03-12T23:15:01.786Z,99.90
2023-03-12T23:17:28.541Z,99.90
2023-03-12T23:19:55.332Z,99.90
2023-03-12T23:22:22.050Z,99.90
2023-03-12T23:24:49.756Z,99.90
2023-03-12T23:27:16.646Z,99.90
2023-03-12T23:29:43.454Z,99.90
2023-03-12T23:32:10.239Z,99.90
2023-03-12T23:34:36.982Z,99.90
2023-03-12T23:37:03.832Z,99.90
2023-03-12T23:39:30.940Z,99.90
2023-03-12T23:41:58.033Z,99.90
2023-03-12T23:44:24.967Z,99.90
2023-03-12T23:46:51.856Z,99.90
2023-03-12T23:49:18.611Z,99.90
2023-03-12T23:51:45.773Z,99.90
2023-03-12T23:54:12.586Z,99.90
2023-03-12T23:56:40.850Z,99.90
2023-03-12T23:59:09.178Z,99.90
